sensor_id;sensor_type;location;lat;lon;timestamp;pressure;altitude;pressure_sealevel;temperature;humidity
17649;BME280;8943;51.110;-4.158;2023-05-02T00:02:12;101904.56;;;14.38;51.93
17649;BME280;8943;51.110;-4.158;2023-05-02T00:04:40;101902.31;;;14.32;52.03
17649;BME280;8943;51.110;-4.158;2023-05-02T00:07:09;101908.84;;;14.28;51.88
17649;BME280;8943;51.110;-4.158;2023-05-02T00:09:38;101909.06;;;14.25;51.84
17649;BME280;8943;51.110;-4.158;2023-05-02T00:12:07;101915.50;;;14.22;52.02
17649;BME280;8943;51.110;-4.158;2023-05-02T00:14:35;101908.63;;;14.18;52.07
17649;BME280;8943;51.110;-4.158;2023-05-02T00:17:03;101897.25;;;14.14;52.12
17649;BME280;8943;51.110;-4.158;2023-05-02T00:19:37;101899.31;;;14.11;51.93
17649;BME280;8943;51.110;-4.158;2023-05-02T00:22:05;101908.63;;;14.05;52.05
17649;BME280;8943;51.110;-4.158;2023-05-02T00:24:33;101908.63;;;14.05;52.38
17649;BME280;8943;51.110;-4.158;2023-05-02T00:27:02;101898.56;;;13.96;51.95
17649;BME280;8943;51.110;-4.158;2023-05-02T00:29:30;101900.47;;;13.94;52.16
17649;BME280;8943;51.110;-4.158;2023-05-02T00:31:59;101902.72;;;13.87;52.30
17649;BME280;8943;51.110;-4.158;2023-05-02T00:34:28;101907.31;;;13.85;52.22
17649;BME280;8943;51.110;-4.158;2023-05-02T00:36:58;101907.53;;;13.82;52.25
17649;BME280;8943;51.110;-4.158;2023-05-02T00:39:26;101904.31;;;13.77;52.16
17649;BME280;8943;51.110;-4.158;2023-05-02T00:41:58;101897.44;;;13.73;52.25
17649;BME280;8943;51.110;-4.158;2023-05-02T00:44:27;101903.00;;;13.70;52.37
17649;BME280;8943;51.110;-4.158;2023-05-02T00:46:56;101905.91;;;13.67;52.63
17649;BME280;8943;51.110;-4.158;2023-05-02T00:49:25;101908.91;;;13.62;52.64
17649;BME280;8943;51.110;-4.158;2023-05-02T00:51:53;101915.84;;;13.65;52.33
17649;BME280;8943;51.110;-4.158;2023-05-02T00:54:23;101918.66;;;13.63;52.37
17649;BME280;8943;51.110;-4.158;2023-05-02T00:56:52;101922.06;;;13.65;52.50
17649;BME280;8943;51.110;-4.158;2023-05-02T00:59:22;101929.34;;;13.63;52.48
17649;BME280;8943;51.110;-4.158;2023-05-02T01:01:56;101926.50;;;13.67;52.55
17649;BME280;8943;51.110;-4.158;2023-05-02T01:04:32;101933.44;;;13.69;52.36
17649;BME280;8943;51.110;-4.158;2023-05-02T01:07:17;101923.81;;;13.67;52.49
17649;BME280;8943;51.110;-4.158;2023-05-02T01:10:10;101927.03;;;13.72;52.43
17649;BME280;8943;51.110;-4.158;2023-05-02T01:12:45;101936.56;;;13.76;52.32
17649;BME280;8943;51.110;-4.158;2023-05-02T01:15:19;101930.25;;;13.77;52.50
17649;BME280;8943;51.110;-4.158;2023-05-02T01:17:48;101936.47;;;13.77;52.50
17649;BME280;8943;51.110;-4.158;2023-05-02T01:20:20;101932.16;;;13.75;52.34
17649;BME280;8943;51.110;-4.158;2023-05-02T01:22:53;101941.16;;;13.74;52.36
17649;BME280;8943;51.110;-4.158;2023-05-02T01:25:28;101933.31;;;13.71;52.70
17649;BME280;8943;51.110;-4.158;2023-05-02T01:28:07;101932.59;;;13.69;52.72
17649;BME280;8943;51.110;-4.158;2023-05-02T01:30:41;101929.91;;;13.69;52.51
17649;BME280;8943;51.110;-4.158;2023-05-02T01:33:11;101937.75;;;13.72;52.75
17649;BME280;8943;51.110;-4.158;2023-05-02T01:35:42;101933.25;;;13.72;52.69
17649;BME280;8943;51.110;-4.158;2023-05-02T01:38:13;101932.16;;;13.75;52.84
17649;BME280;8943;51.110;-4.158;2023-05-02T01:40:44;101932.94;;;13.77;52.85
17649;BME280;8943;51.110;-4.158;2023-05-02T01:43:13;101926.38;;;13.81;53.26
17649;BME280;8943;51.110;-4.158;2023-05-02T01:45:46;101927.47;;;13.78;52.69
17649;BME280;8943;51.110;-4.158;2023-05-02T01:48:16;101924.13;;;13.75;52.72
17649;BME280;8943;51.110;-4.158;2023-05-02T01:50:46;101930.03;;;13.67;52.95
17649;BME280;8943;51.110;-4.158;2023-05-02T01:53:16;101926.13;;;13.58;52.72
17649;BME280;8943;51.110;-4.158;2023-05-02T01:55:45;101923.22;;;13.49;52.97
17649;BME280;8943;51.110;-4.158;2023-05-02T01:58:15;101922.78;;;13.42;53.14
17649;BME280;8943;51.110;-4.158;2023-05-02T02:00:46;101911.81;;;13.32;52.99
17649;BME280;8943;51.110;-4.158;2023-05-02T02:03:15;101928.53;;;13.22;52.95
17649;BME280;8943;51.110;-4.158;2023-05-02T02:05:46;101927.97;;;13.17;52.98
17649;BME280;8943;51.110;-4.158;2023-05-02T02:08:16;101927.41;;;13.11;52.91
17649;BME280;8943;51.110;-4.158;2023-05-02T02:10:49;101921.59;;;13.05;53.07
17649;BME280;8943;51.110;-4.158;2023-05-02T02:13:26;101917.22;;;13.04;53.04
17649;BME280;8943;51.110;-4.158;2023-05-02T02:16:00;101914.72;;;13.01;53.24
17649;BME280;8943;51.110;-4.158;2023-05-02T02:18:33;101915.69;;;13.00;53.47
17649;BME280;8943;51.110;-4.158;2023-05-02T02:21:04;101920.06;;;13.01;53.14
17649;BME280;8943;51.110;-4.158;2023-05-02T02:23:35;101936.13;;;13.01;53.09
17649;BME280;8943;51.110;-4.158;2023-05-02T02:26:05;101930.97;;;12.98;53.02
17649;BME280;8943;51.110;-4.158;2023-05-02T02:28:35;101933.94;;;12.93;52.96
17649;BME280;8943;51.110;-4.158;2023-05-02T02:31:05;101927.81;;;12.91;52.94
17649;BME280;8943;51.110;-4.158;2023-05-02T02:33:33;101935.84;;;12.91;53.22
17649;BME280;8943;51.110;-4.158;2023-05-02T02:36:07;101934.25;;;12.88;53.01
17649;BME280;8943;51.110;-4.158;2023-05-02T02:38:41;101930.69;;;12.88;53.00
17649;BME280;8943;51.110;-4.158;2023-05-02T02:41:17;101936.72;;;12.92;52.95
17649;BME280;8943;51.110;-4.158;2023-05-02T02:43:56;101940.47;;;12.89;53.04
17649;BME280;8943;51.110;-4.158;2023-05-02T02:46:47;101945.25;;;12.84;53.10
17649;BME280;8943;51.110;-4.158;2023-05-02T02:49:26;101930.53;;;12.77;53.17
17649;BME280;8943;51.110;-4.158;2023-05-02T02:52:03;101941.22;;;12.77;53.13
17649;BME280;8943;51.110;-4.158;2023-05-02T02:54:38;101948.56;;;12.73;53.19
17649;BME280;8943;51.110;-4.158;2023-05-02T02:57:15;101947.72;;;12.73;53.07
17649;BME280;8943;51.110;-4.158;2023-05-02T02:59:53;101952.88;;;12.76;53.13
17649;BME280;8943;51.110;-4.158;2023-05-02T03:02:30;101951.16;;;12.75;53.30
17649;BME280;8943;51.110;-4.158;2023-05-02T03:05:01;101958.34;;;12.74;53.17
17649;BME280;8943;51.110;-4.158;2023-05-02T03:07:30;101959.25;;;12.73;53.14
17649;BME280;8943;51.110;-4.158;2023-05-02T03:10:02;101960.34;;;12.71;53.02
17649;BME280;8943;51.110;-4.158;2023-05-02T03:12:31;101956.03;;;12.68;53.13
17649;BME280;8943;51.110;-4.158;2023-05-02T03:15:21;101957.94;;;12.66;53.01
17649;BME280;8943;51.110;-4.158;2023-05-02T03:17:52;101953.47;;;12.67;53.14
17649;BME280;8943;51.110;-4.158;2023-05-02T03:20:20;101953.63;;;12.63;53.20
17649;BME280;8943;51.110;-4.158;2023-05-02T03:22:49;101945.81;;;12.60;53.17
17649;BME280;8943;51.110;-4.158;2023-05-02T03:25:17;101937.13;;;12.57;52.94
17649;BME280;8943;51.110;-4.158;2023-05-02T03:27:46;101933.78;;;12.53;53.23
17649;BME280;8943;51.110;-4.158;2023-05-02T03:30:14;101935.88;;;12.48;53.25
17649;BME280;8943;51.110;-4.158;2023-05-02T03:32:42;101942.47;;;12.43;53.18
17649;BME280;8943;51.110;-4.158;2023-05-02T03:35:12;101937.41;;;12.38;53.18
17649;BME280;8943;51.110;-4.158;2023-05-02T03:37:40;101949.06;;;12.37;53.34
17649;BME280;8943;51.110;-4.158;2023-05-02T03:40:08;101949.34;;;12.32;53.56
17649;BME280;8943;51.110;-4.158;2023-05-02T03:42:37;101944.09;;;12.31;53.42
17649;BME280;8943;51.110;-4.158;2023-05-02T03:45:07;101942.38;;;12.30;53.28
17649;BME280;8943;51.110;-4.158;2023-05-02T03:47:36;101939.88;;;12.27;53.30
17649;BME280;8943;51.110;-4.158;2023-05-02T03:50:05;101943.53;;;12.26;53.49
17649;BME280;8943;51.110;-4.158;2023-05-02T03:52:35;101950.75;;;12.24;53.52
17649;BME280;8943;51.110;-4.158;2023-05-02T03:55:04;101951.59;;;12.24;53.45
17649;BME280;8943;51.110;-4.158;2023-05-02T03:57:33;101951.31;;;12.29;53.56
17649;BME280;8943;51.110;-4.158;2023-05-02T04:00:01;101957.19;;;12.35;53.57
17649;BME280;8943;51.110;-4.158;2023-05-02T04:02:30;101956.03;;;12.40;53.50
17649;BME280;8943;51.110;-4.158;2023-05-02T04:04:58;101946.97;;;12.42;53.32
17649;BME280;8943;51.110;-4.158;2023-05-02T04:07:26;101946.00;;;12.43;53.42
17649;BME280;8943;51.110;-4.158;2023-05-02T04:09:56;101942.75;;;12.38;53.40
17649;BME280;8943;51.110;-4.158;2023-05-02T04:12:24;101939.22;;;12.37;53.41
17649;BME280;8943;51.110;-4.158;2023-05-02T04:14:52;101941.22;;;12.34;53.20
17649;BME280;8943;51.110;-4.158;2023-05-02T04:17:21;101941.59;;;12.28;53.37
17649;BME280;8943;51.110;-4.158;2023-05-02T04:19:49;101941.59;;;12.28;53.63
17649;BME280;8943;51.110;-4.158;2023-05-02T04:22:18;101943.31;;;12.29;53.66
17649;BME280;8943;51.110;-4.158;2023-05-02T04:24:46;101937.97;;;12.29;53.49
17649;BME280;8943;51.110;-4.158;2023-05-02T04:27:15;101947.72;;;12.30;53.54
17649;BME280;8943;51.110;-4.158;2023-05-02T04:29:47;101947.72;;;12.30;53.56
17649;BME280;8943;51.110;-4.158;2023-05-02T04:32:15;101936.06;;;12.31;53.50
17649;BME280;8943;51.110;-4.158;2023-05-02T04:34:44;101937.63;;;12.35;53.44
17649;BME280;8943;51.110;-4.158;2023-05-02T04:37:12;101944.47;;;12.39;53.66
17649;BME280;8943;51.110;-4.158;2023-05-02T04:39:41;101924.81;;;12.40;53.31
17649;BME280;8943;51.110;-4.158;2023-05-02T04:42:09;101926.72;;;12.38;53.46
17649;BME280;8943;51.110;-4.158;2023-05-02T04:44:39;101923.09;;;12.39;53.55
17649;BME280;8943;51.110;-4.158;2023-05-02T04:47:07;101936.44;;;12.39;53.29
17649;BME280;8943;51.110;-4.158;2023-05-02T04:49:36;101934.94;;;12.35;53.71
17649;BME280;8943;51.110;-4.158;2023-05-02T04:52:04;101937.69;;;12.33;53.53
17649;BME280;8943;51.110;-4.158;2023-05-02T04:54:33;101943.81;;;12.35;53.62
17649;BME280;8943;51.110;-4.158;2023-05-02T04:57:01;101947.13;;;12.39;53.83
17649;BME280;8943;51.110;-4.158;2023-05-02T04:59:32;101941.63;;;12.42;53.69
17649;BME280;8943;51.110;-4.158;2023-05-02T05:02:02;101950.78;;;12.52;54.04
17649;BME280;8943;51.110;-4.158;2023-05-02T05:04:30;101953.91;;;12.59;54.03
17649;BME280;8943;51.110;-4.158;2023-05-02T05:06:59;101949.75;;;12.69;53.95
17649;BME280;8943;51.110;-4.158;2023-05-02T05:09:27;101956.31;;;12.78;53.95
17649;BME280;8943;51.110;-4.158;2023-05-02T05:11:55;101956.69;;;12.86;53.99
17649;BME280;8943;51.110;-4.158;2023-05-02T05:14:24;101960.38;;;12.98;54.23
17649;BME280;8943;51.110;-4.158;2023-05-02T05:16:54;101949.03;;;13.08;53.87
17649;BME280;8943;51.110;-4.158;2023-05-02T05:19:24;101959.13;;;13.18;54.16
17649;BME280;8943;51.110;-4.158;2023-05-02T05:21:52;101953.00;;;13.30;54.13
17649;BME280;8943;51.110;-4.158;2023-05-02T05:24:20;101962.94;;;13.42;53.82
17649;BME280;8943;51.110;-4.158;2023-05-02T05:26:48;101967.66;;;13.51;54.06
17649;BME280;8943;51.110;-4.158;2023-05-02T05:29:17;101979.47;;;13.61;53.92
17649;BME280;8943;51.110;-4.158;2023-05-02T05:31:46;101971.13;;;13.66;53.91
17649;BME280;8943;51.110;-4.158;2023-05-02T05:34:16;101975.03;;;13.75;53.97
17649;BME280;8943;51.110;-4.158;2023-05-02T05:36:46;101973.44;;;13.85;54.00
17649;BME280;8943;51.110;-4.158;2023-05-02T05:39:14;101989.69;;;13.96;54.07
17649;BME280;8943;51.110;-4.158;2023-05-02T05:41:42;101991.63;;;14.07;54.06
17649;BME280;8943;51.110;-4.158;2023-05-02T05:44:10;101990.16;;;14.15;54.07
17649;BME280;8943;51.110;-4.158;2023-05-02T05:46:39;101996.59;;;14.26;53.93
17649;BME280;8943;51.110;-4.158;2023-05-02T05:49:07;101993.38;;;14.33;53.61
17649;BME280;8943;51.110;-4.158;2023-05-02T05:51:35;101993.81;;;14.40;53.59
17649;BME280;8943;51.110;-4.158;2023-05-02T05:54:05;102001.44;;;14.46;53.62
17649;BME280;8943;51.110;-4.158;2023-05-02T05:56:35;101995.66;;;14.52;53.59
17649;BME280;8943;51.110;-4.158;2023-05-02T05:59:03;101998.03;;;14.57;53.60
17649;BME280;8943;51.110;-4.158;2023-05-02T06:01:31;101994.28;;;14.59;53.60
17649;BME280;8943;51.110;-4.158;2023-05-02T06:04:03;101997.25;;;14.67;53.86
17649;BME280;8943;51.110;-4.158;2023-05-02T06:06:31;102005.66;;;14.76;53.67
17649;BME280;8943;51.110;-4.158;2023-05-02T06:09:00;102001.53;;;14.83;53.97
17649;BME280;8943;51.110;-4.158;2023-05-02T06:11:30;102007.22;;;14.91;53.87
17649;BME280;8943;51.110;-4.158;2023-05-02T06:13:58;102007.56;;;14.99;53.72
17649;BME280;8943;51.110;-4.158;2023-05-02T06:16:26;102008.81;;;15.06;53.95
17649;BME280;8943;51.110;-4.158;2023-05-02T06:18:54;102001.19;;;15.13;53.55
17649;BME280;8943;51.110;-4.158;2023-05-02T06:21:23;102006.97;;;15.19;53.73
17649;BME280;8943;51.110;-4.158;2023-05-02T06:23:51;102007.03;;;15.31;53.59
17649;BME280;8943;51.110;-4.158;2023-05-02T06:26:19;102008.31;;;15.38;53.60
17649;BME280;8943;51.110;-4.158;2023-05-02T06:28:49;102011.28;;;15.46;53.70
17649;BME280;8943;51.110;-4.158;2023-05-02T06:31:18;102012.31;;;15.56;53.70
17649;BME280;8943;51.110;-4.158;2023-05-02T06:33:46;102021.88;;;15.60;53.74
17649;BME280;8943;51.110;-4.158;2023-05-02T06:36:14;102021.75;;;15.75;53.51
17649;BME280;8943;51.110;-4.158;2023-05-02T06:38:42;102017.72;;;15.80;53.53
17649;BME280;8943;51.110;-4.158;2023-05-02T06:41:12;102024.75;;;15.94;53.43
17649;BME280;8943;51.110;-4.158;2023-05-02T06:43:43;102022.09;;;16.05;53.39
17649;BME280;8943;51.110;-4.158;2023-05-02T06:46:13;102030.75;;;16.21;53.34
17649;BME280;8943;51.110;-4.158;2023-05-02T06:48:41;102025.03;;;16.37;53.40
17649;BME280;8943;51.110;-4.158;2023-05-02T06:51:09;102021.28;;;16.51;53.14
17649;BME280;8943;51.110;-4.158;2023-05-02T06:53:37;102016.31;;;16.69;53.34
17649;BME280;8943;51.110;-4.158;2023-05-02T06:56:06;102016.56;;;16.88;53.18
17649;BME280;8943;51.110;-4.158;2023-05-02T06:58:34;102010.69;;;17.06;53.12
17649;BME280;8943;51.110;-4.158;2023-05-02T07:01:02;102008.00;;;17.17;53.00
17649;BME280;8943;51.110;-4.158;2023-05-02T07:03:32;102006.97;;;17.40;52.80
17649;BME280;8943;51.110;-4.158;2023-05-02T07:06:00;102005.50;;;17.47;52.70
17649;BME280;8943;51.110;-4.158;2023-05-02T07:08:29;102022.25;;;17.62;52.64
17649;BME280;8943;51.110;-4.158;2023-05-02T07:10:57;102013.41;;;17.71;52.57
17649;BME280;8943;51.110;-4.158;2023-05-02T07:13:25;102007.63;;;17.76;52.46
17649;BME280;8943;51.110;-4.158;2023-05-02T07:15:53;102015.81;;;17.86;52.02
17649;BME280;8943;51.110;-4.158;2023-05-02T07:18:22;102006.28;;;17.82;52.11
17649;BME280;8943;51.110;-4.158;2023-05-02T07:20:52;102009.47;;;17.75;51.89
17649;BME280;8943;51.110;-4.158;2023-05-02T07:23:20;102009.72;;;17.72;51.74
17649;BME280;8943;51.110;-4.158;2023-05-02T07:25:49;102012.66;;;17.69;51.52
17649;BME280;8943;51.110;-4.158;2023-05-02T07:28:17;102007.03;;;17.61;51.62
17649;BME280;8943;51.110;-4.158;2023-05-02T07:30:45;102004.00;;;17.55;51.67
17649;BME280;8943;51.110;-4.158;2023-05-02T07:33:14;102003.28;;;17.53;51.85
17649;BME280;8943;51.110;-4.158;2023-05-02T07:35:43;101996.53;;;17.47;51.71
17649;BME280;8943;51.110;-4.158;2023-05-02T07:38:13;101997.81;;;17.43;51.73
17649;BME280;8943;51.110;-4.158;2023-05-02T07:40:42;101997.44;;;17.36;51.70
17649;BME280;8943;51.110;-4.158;2023-05-02T07:43:12;101995.00;;;17.33;51.75
17649;BME280;8943;51.110;-4.158;2023-05-02T07:45:41;101991.19;;;17.36;51.64
17649;BME280;8943;51.110;-4.158;2023-05-02T07:48:10;101990.56;;;17.32;51.58
17649;BME280;8943;51.110;-4.158;2023-05-02T07:50:38;101997.09;;;17.30;51.56
17649;BME280;8943;51.110;-4.158;2023-05-02T07:53:06;101989.25;;;17.27;51.78
17649;BME280;8943;51.110;-4.158;2023-05-02T07:55:36;101993.66;;;17.28;51.73
17649;BME280;8943;51.110;-4.158;2023-05-02T07:58:04;101993.53;;;17.29;51.81
17649;BME280;8943;51.110;-4.158;2023-05-02T08:00:32;101985.06;;;17.22;51.70
17649;BME280;8943;51.110;-4.158;2023-05-02T08:03:00;101997.09;;;17.30;51.54
17649;BME280;8943;51.110;-4.158;2023-05-02T08:05:29;101992.41;;;17.32;51.78
17649;BME280;8943;51.110;-4.158;2023-05-02T08:07:57;102000.03;;;17.38;51.61
17649;BME280;8943;51.110;-4.158;2023-05-02T08:10:27;102000.59;;;17.41;51.62
17649;BME280;8943;51.110;-4.158;2023-05-02T08:12:57;102003.44;;;17.40;51.53
17649;BME280;8943;51.110;-4.158;2023-05-02T08:15:25;102004.91;;;17.44;51.31
17649;BME280;8943;51.110;-4.158;2023-05-02T08:17:53;102004.53;;;17.48;51.46
17649;BME280;8943;51.110;-4.158;2023-05-02T08:20:22;102013.22;;;17.52;51.59
17649;BME280;8943;51.110;-4.158;2023-05-02T08:22:50;102017.34;;;17.56;51.52
17649;BME280;8943;51.110;-4.158;2023-05-02T08:25:18;102026.66;;;17.63;51.59
17649;BME280;8943;51.110;-4.158;2023-05-02T08:27:46;102018.91;;;17.70;51.77
17649;BME280;8943;51.110;-4.158;2023-05-02T08:30:16;102018.31;;;17.78;51.41
17649;BME280;8943;51.110;-4.158;2023-05-02T08:32:45;102024.03;;;17.84;51.52
17649;BME280;8943;51.110;-4.158;2023-05-02T08:35:13;102018.50;;;17.97;51.48
17649;BME280;8943;51.110;-4.158;2023-05-02T08:37:42;102023.75;;;17.98;51.51
17649;BME280;8943;51.110;-4.158;2023-05-02T08:40:11;102025.81;;;18.06;51.53
17649;BME280;8943;51.110;-4.158;2023-05-02T08:42:41;102035.06;;;18.13;51.38
17649;BME280;8943;51.110;-4.158;2023-05-02T08:45:12;102032.31;;;18.24;51.78
17649;BME280;8943;51.110;-4.158;2023-05-02T08:47:45;102035.81;;;18.36;51.34
17649;BME280;8943;51.110;-4.158;2023-05-02T08:50:16;102037.00;;;18.43;51.34
17649;BME280;8943;51.110;-4.158;2023-05-02T08:52:45;102038.75;;;18.54;51.02
17649;BME280;8943;51.110;-4.158;2023-05-02T08:55:15;102035.28;;;18.63;51.21
17649;BME280;8943;51.110;-4.158;2023-05-02T08:57:44;102026.28;;;18.74;50.95
17649;BME280;8943;51.110;-4.158;2023-05-02T09:00:13;102038.97;;;18.83;50.66
17649;BME280;8943;51.110;-4.158;2023-05-02T09:02:53;102037.16;;;18.93;50.62
17649;BME280;8943;51.110;-4.158;2023-05-02T09:05:28;102041.66;;;19.04;50.72
17649;BME280;8943;51.110;-4.158;2023-05-02T09:07:59;102047.66;;;19.17;50.63
17649;BME280;8943;51.110;-4.158;2023-05-02T09:10:27;102039.72;;;19.25;50.42
17649;BME280;8943;51.110;-4.158;2023-05-02T09:12:56;102047.72;;;19.37;50.24
17649;BME280;8943;51.110;-4.158;2023-05-02T09:15:24;102052.03;;;19.49;50.35
17649;BME280;8943;51.110;-4.158;2023-05-02T09:17:54;102071.59;;;19.62;50.18
17649;BME280;8943;51.110;-4.158;2023-05-02T09:20:23;102069.63;;;19.84;50.21
17649;BME280;8943;51.110;-4.158;2023-05-02T09:22:51;102069.66;;;20.03;50.27
17649;BME280;8943;51.110;-4.158;2023-05-02T09:25:21;102077.06;;;20.30;50.42
17649;BME280;8943;51.110;-4.158;2023-05-02T09:27:51;102070.94;;;20.57;49.78
17649;BME280;8943;51.110;-4.158;2023-05-02T09:30:22;102076.31;;;20.76;49.63
17649;BME280;8943;51.110;-4.158;2023-05-02T09:32:51;102071.53;;;20.98;49.24
17649;BME280;8943;51.110;-4.158;2023-05-02T09:35:23;102071.22;;;21.11;48.68
17649;BME280;8943;51.110;-4.158;2023-05-02T09:37:52;102062.66;;;21.15;48.48
17649;BME280;8943;51.110;-4.158;2023-05-02T09:40:21;102067.00;;;21.26;48.26
17649;BME280;8943;51.110;-4.158;2023-05-02T09:42:50;102059.31;;;21.31;48.10
17649;BME280;8943;51.110;-4.158;2023-05-02T09:45:22;102049.84;;;21.45;47.89
17649;BME280;8943;51.110;-4.158;2023-05-02T09:47:51;102057.06;;;21.54;47.59
17649;BME280;8943;51.110;-4.158;2023-05-02T09:50:32;102052.88;;;21.59;47.62
17649;BME280;8943;51.110;-4.158;2023-05-02T09:53:02;102048.41;;;21.68;47.37
17649;BME280;8943;51.110;-4.158;2023-05-02T09:55:31;102045.84;;;21.84;47.46
17649;BME280;8943;51.110;-4.158;2023-05-02T09:57:59;102050.06;;;21.97;46.99
17649;BME280;8943;51.110;-4.158;2023-05-02T10:00:38;102050.22;;;22.13;46.67
17649;BME280;8943;51.110;-4.158;2023-05-02T10:03:06;102055.09;;;22.27;46.55
17649;BME280;8943;51.110;-4.158;2023-05-02T10:05:37;102058.88;;;22.34;45.96
17649;BME280;8943;51.110;-4.158;2023-05-02T10:08:06;102055.22;;;22.44;45.85
17649;BME280;8943;51.110;-4.158;2023-05-02T10:10:37;102059.03;;;22.51;45.68
17649;BME280;8943;51.110;-4.158;2023-05-02T10:13:07;102054.34;;;22.61;45.59
17649;BME280;8943;51.110;-4.158;2023-05-02T10:15:42;102049.66;;;22.71;45.28
17649;BME280;8943;51.110;-4.158;2023-05-02T10:18:12;102057.91;;;22.87;44.96
17649;BME280;8943;51.110;-4.158;2023-05-02T10:20:47;102059.28;;;23.09;44.87
17649;BME280;8943;51.110;-4.158;2023-05-02T10:23:20;102065.47;;;23.28;44.98
17649;BME280;8943;51.110;-4.158;2023-05-02T10:25:49;102065.19;;;23.47;44.13
17649;BME280;8943;51.110;-4.158;2023-05-02T10:28:18;102059.09;;;23.61;44.07
17649;BME280;8943;51.110;-4.158;2023-05-02T10:30:48;102056.13;;;23.73;43.60
17649;BME280;8943;51.110;-4.158;2023-05-02T10:33:19;102056.84;;;23.83;43.45
17649;BME280;8943;51.110;-4.158;2023-05-02T10:35:49;102054.97;;;23.92;43.13
17649;BME280;8943;51.110;-4.158;2023-05-02T10:38:20;102061.78;;;23.96;42.78
17649;BME280;8943;51.110;-4.158;2023-05-02T10:40:55;102055.81;;;24.00;42.54
17649;BME280;8943;51.110;-4.158;2023-05-02T10:43:29;102062.47;;;24.06;42.34
17649;BME280;8943;51.110;-4.158;2023-05-02T10:45:57;102061.13;;;24.18;41.81
17649;BME280;8943;51.110;-4.158;2023-05-02T10:48:27;102068.94;;;24.29;42.07
17649;BME280;8943;51.110;-4.158;2023-05-02T10:50:58;102068.47;;;24.42;41.52
17649;BME280;8943;51.110;-4.158;2023-05-02T10:53:30;102079.53;;;24.49;40.92
17649;BME280;8943;51.110;-4.158;2023-05-02T10:56:11;102082.59;;;24.54;40.84
17649;BME280;8943;51.110;-4.158;2023-05-02T10:58:39;102085.31;;;24.62;41.25
17649;BME280;8943;51.110;-4.158;2023-05-02T11:01:35;102087.19;;;24.61;40.33
17649;BME280;8943;51.110;-4.158;2023-05-02T11:04:06;102074.41;;;24.62;40.51
17649;BME280;8943;51.110;-4.158;2023-05-02T11:09:43;102074.06;;;24.73;40.40
17649;BME280;8943;51.110;-4.158;2023-05-02T11:12:44;102076.44;;;24.76;40.01
17649;BME280;8943;51.110;-4.158;2023-05-02T11:15:13;102071.31;;;24.73;39.79
17649;BME280;8943;51.110;-4.158;2023-05-02T11:17:58;102065.22;;;24.71;39.60
17649;BME280;8943;51.110;-4.158;2023-05-02T11:20:26;102068.59;;;24.81;40.30
17649;BME280;8943;51.110;-4.158;2023-05-02T11:22:58;102079.66;;;24.88;39.95
17649;BME280;8943;51.110;-4.158;2023-05-02T11:25:32;102065.88;;;24.89;39.54
17649;BME280;8943;51.110;-4.158;2023-05-02T11:28:03;102063.28;;;24.96;39.82
17649;BME280;8943;51.110;-4.158;2023-05-02T11:30:42;102067.53;;;25.07;39.72
17649;BME280;8943;51.110;-4.158;2023-05-02T11:33:14;102075.84;;;25.22;39.45
17649;BME280;8943;51.110;-4.158;2023-05-02T11:35:44;102072.03;;;25.39;39.22
17649;BME280;8943;51.110;-4.158;2023-05-02T11:38:16;102064.66;;;25.48;38.62
17649;BME280;8943;51.110;-4.158;2023-05-02T11:40:54;102065.34;;;25.41;38.25
17649;BME280;8943;51.110;-4.158;2023-05-02T11:43:24;102065.34;;;25.41;38.29
17649;BME280;8943;51.110;-4.158;2023-05-02T11:45:58;102060.72;;;25.42;38.19
17649;BME280;8943;51.110;-4.158;2023-05-02T11:48:28;102053.88;;;25.54;38.10
17649;BME280;8943;51.110;-4.158;2023-05-02T11:50:58;102054.94;;;25.76;37.98
17649;BME280;8943;51.110;-4.158;2023-05-02T11:53:32;102055.31;;;25.96;37.60
17649;BME280;8943;51.110;-4.158;2023-05-02T11:56:02;102048.91;;;26.12;37.88
17649;BME280;8943;51.110;-4.158;2023-05-02T11:58:31;102044.69;;;26.24;37.72
17649;BME280;8943;51.110;-4.158;2023-05-02T12:01:11;102053.25;;;26.44;37.00
17649;BME280;8943;51.110;-4.158;2023-05-02T12:03:40;102052.72;;;26.49;36.57
17649;BME280;8943;51.110;-4.158;2023-05-02T12:06:10;102052.59;;;26.42;35.92
17649;BME280;8943;51.110;-4.158;2023-05-02T12:08:42;102053.50;;;26.34;36.15
17649;BME280;8943;51.110;-4.158;2023-05-02T12:11:12;102054.47;;;26.41;36.23
17649;BME280;8943;51.110;-4.158;2023-05-02T12:13:44;102056.72;;;26.61;36.20
17649;BME280;8943;51.110;-4.158;2023-05-02T12:16:13;102060.22;;;26.69;36.04
17649;BME280;8943;51.110;-4.158;2023-05-02T12:18:43;102061.44;;;26.67;35.84
17649;BME280;8943;51.110;-4.158;2023-05-02T12:21:11;102058.63;;;26.75;35.79
17649;BME280;8943;51.110;-4.158;2023-05-02T12:23:41;102046.84;;;26.75;35.64
17649;BME280;8943;51.110;-4.158;2023-05-02T12:26:16;102042.66;;;26.93;35.77
17649;BME280;8943;51.110;-4.158;2023-05-02T12:28:49;102047.56;;;26.98;36.09
17649;BME280;8943;51.110;-4.158;2023-05-02T12:31:17;102041.47;;;27.11;35.62
17649;BME280;8943;51.110;-4.158;2023-05-02T12:33:46;102043.44;;;27.32;35.14
17649;BME280;8943;51.110;-4.158;2023-05-02T12:36:16;102052.66;;;27.45;34.85
17649;BME280;8943;51.110;-4.158;2023-05-02T12:38:50;102045.94;;;27.63;33.98
17649;BME280;8943;51.110;-4.158;2023-05-02T12:41:30;102056.34;;;27.53;34.03
17649;BME280;8943;51.110;-4.158;2023-05-02T12:43:59;102042.19;;;27.49;33.99
17649;BME280;8943;51.110;-4.158;2023-05-02T12:46:27;102038.50;;;27.42;33.96
17649;BME280;8943;51.110;-4.158;2023-05-02T12:49:01;102034.47;;;27.38;33.84
17649;BME280;8943;51.110;-4.158;2023-05-02T12:51:31;102043.25;;;27.33;34.09
17649;BME280;8943;51.110;-4.158;2023-05-02T12:54:02;102047.28;;;27.37;34.06
17649;BME280;8943;51.110;-4.158;2023-05-02T12:56:37;102042.38;;;27.48;33.77
17649;BME280;8943;51.110;-4.158;2023-05-02T12:59:06;102039.72;;;27.54;33.62
17649;BME280;8943;51.110;-4.158;2023-05-02T13:01:35;102048.72;;;27.69;33.75
17649;BME280;8943;51.110;-4.158;2023-05-02T13:04:03;102063.97;;;27.42;34.58
17649;BME280;8943;51.110;-4.158;2023-05-02T13:06:32;102061.41;;;27.56;34.16
17649;BME280;8943;51.110;-4.158;2023-05-02T13:09:05;102060.78;;;27.90;32.67
17649;BME280;8943;51.110;-4.158;2023-05-02T13:11:33;102060.97;;;27.88;32.99